createdAt,value
2023-05-05T00:01:08.734Z,98135.94
2023-05-05T00:03:35.744Z,98132.47
2023-05-05T00:06:02.845Z,98139.22
2023-05-05T00:08:29.656Z,98088.22
2023-05-05T00:10:57.375Z,98146.59
2023-05-05T00:13:24.248Z,98151.06
2023-05-05T00:15:53.420Z,98153.16
2023-05-05T00:18:21.012Z,98152.19
2023-05-05T00:20:48.133Z,98142.84
2023-05-05T00:23:16.013Z,98142.63
2023-05-05T00:25:42.590Z,98149.59
2023-05-05T00:28:09.094Z,98134.50
2023-05-05T00:30:37.290Z,98153.88
2023-05-05T00:33:04.016Z,98137.41
2023-05-05T00:35:30.758Z,98114.31
2023-05-05T00:37:57.383Z,98144.81
2023-05-05T00:40:25.038Z,98151.69
2023-05-05T00:42:52.112Z,98124.09
2023-05-05T00:45:19.802Z,98141.66
2023-05-05T00:47:48.536Z,98146.06
2023-05-05T00:50:22.914Z,98150.19
2023-05-05T00:52:50.524Z,98140.22
2023-05-05T00:55:17.791Z,98147.59
2023-05-05T00:57:45.377Z,98144.38
2023-05-05T01:00:12.660Z,98137.53
2023-05-05T01:02:39.876Z,98150.75
2023-05-05T01:05:08.575Z,98153.25
2023-05-05T01:08:04.585Z,98138.94
2023-05-05T01:10:31.160Z,98155.53
2023-05-05T01:13:20.544Z,98137.56
2023-05-05T01:15:53.357Z,98166.28
2023-05-05T01:18:35.882Z,98159.00
2023-05-05T01:21:14.557Z,98157.22
2023-05-05T01:23:46.988Z,98155.38
2023-05-05T01:26:31.514Z,98151.97
2023-05-05T01:29:15.012Z,98152.16
2023-05-05T01:31:51.767Z,98152.94
2023-05-05T01:34:27.888Z,98152.19
2023-05-05T01:37:07.438Z,98103.91
2023-05-05T01:39:35.900Z,98152.66
2023-05-05T01:42:08.099Z,98155.28
2023-05-05T01:44:36.818Z,98160.19
2023-05-05T01:47:04.974Z,98100.41
2023-05-05T01:49:33.414Z,98160.78
2023-05-05T01:52:03.675Z,98154.84
2023-05-05T01:54:34.168Z,98165.66
2023-05-05T01:57:04.796Z,98153.78
2023-05-05T01:59:32.718Z,98170.50
2023-05-05T02:02:02.004Z,98151.97
2023-05-05T02:04:30.076Z,98171.72
2023-05-05T02:07:00.016Z,98169.91
2023-05-05T02:09:28.560Z,98166.28
2023-05-05T02:11:57.934Z,98166.31
2023-05-05T02:14:28.850Z,98164.09
2023-05-05T02:16:56.869Z,98168.50
2023-05-05T02:19:29.582Z,98168.97
2023-05-05T02:21:56.983Z,98174.19
2023-05-05T02:24:24.571Z,98176.88
2023-05-05T02:26:53.221Z,98127.03
2023-05-05T02:29:24.340Z,98179.78
2023-05-05T02:31:55.294Z,98174.44
2023-05-05T02:34:27.983Z,98182.53
2023-05-05T02:37:03.282Z,98155.63
2023-05-05T02:39:39.468Z,98174.31
2023-05-05T02:42:15.203Z,98182.31
2023-05-05T02:44:44.329Z,98180.84
2023-05-05T02:47:11.784Z,98183.25
2023-05-05T02:49:38.328Z,98187.72
2023-05-05T02:52:05.017Z,98188.38
2023-05-05T02:54:35.070Z,98185.59
2023-05-05T02:57:06.200Z,98188.75
2023-05-05T02:59:57.799Z,98182.94
2023-05-05T03:02:54.365Z,98194.66
2023-05-05T03:05:25.130Z,98201.63
2023-05-05T03:08:16.840Z,98201.88
2023-05-05T03:11:03.270Z,98201.88
2023-05-05T03:13:32.354Z,98204.31
2023-05-05T03:16:04.501Z,98198.88
2023-05-05T03:18:31.666Z,98198.03
2023-05-05T03:21:08.642Z,98203.03
2023-05-05T03:23:37.828Z,98205.94
2023-05-05T03:26:08.836Z,98197.22
2023-05-05T03:28:39.884Z,98192.47
2023-05-05T03:31:14.649Z,98183.50
2023-05-05T03:33:41.364Z,98186.06
2023-05-05T03:36:08.081Z,98178.28
2023-05-05T03:38:34.909Z,98206.41
2023-05-05T03:41:03.447Z,98205.25
2023-05-05T03:43:31.026Z,98197.56
2023-05-05T03:45:57.949Z,98172.53
2023-05-05T03:48:24.988Z,98214.75
2023-05-05T03:50:52.770Z,98214.16
2023-05-05T03:53:21.036Z,98216.47
2023-05-05T03:55:48.746Z,98206.03
2023-05-05T03:58:15.242Z,98205.66
2023-05-05T04:00:42.239Z,98198.41
2023-05-05T04:03:10.887Z,98200.25
2023-05-05T04:05:37.881Z,98204.00
2023-05-05T04:08:04.684Z,98209.72
2023-05-05T04:10:31.553Z,98207.75
2023-05-05T04:12:58.232Z,98208.00
2023-05-05T04:15:24.840Z,98214.16
2023-05-05T04:17:51.400Z,98218.22
2023-05-05T04:20:18.910Z,98217.75
2023-05-05T04:22:45.967Z,98207.44
2023-05-05T04:25:12.751Z,98184.75
2023-05-05T04:27:39.264Z,98206.47
2023-05-05T04:30:07.413Z,98219.25
2023-05-05T04:32:36.533Z,98220.53
2023-05-05T04:35:04.021Z,98218.81
2023-05-05T04:37:30.591Z,98221.38
2023-05-05T04:39:58.649Z,98218.22
2023-05-05T04:42:25.821Z,98219.69
2023-05-05T04:44:52.757Z,98230.94
2023-05-05T04:47:19.328Z,98230.81
2023-05-05T04:49:45.908Z,98234.44
2023-05-05T04:52:13.509Z,98235.84
2023-05-05T04:54:40.694Z,98235.09
2023-05-05T04:57:07.532Z,98234.38
2023-05-05T04:59:35.125Z,98241.38
2023-05-05T05:02:01.770Z,98244.38
2023-05-05T05:04:28.249Z,98216.38
2023-05-05T05:06:56.235Z,98241.84
2023-05-05T05:09:25.417Z,98219.06
2023-05-05T05:11:52.773Z,98229.75
2023-05-05T05:14:20.669Z,98238.97
2023-05-05T05:16:51.045Z,98249.16
2023-05-05T05:19:17.874Z,98250.34
2023-05-05T05:21:44.458Z,98255.22
2023-05-05T05:24:11.511Z,98250.94
2023-05-05T05:26:38.768Z,98254.72
2023-05-05T05:29:06.128Z,98261.25
2023-05-05T05:31:34.262Z,98262.88
2023-05-05T05:34:00.994Z,98261.91
2023-05-05T05:36:28.292Z,98272.56
2023-05-05T05:38:54.746Z,98270.59
2023-05-05T05:41:21.551Z,98259.91
2023-05-05T05:43:48.205Z,98275.28
2023-05-05T05:46:14.849Z,98268.53
2023-05-05T05:48:42.525Z,98269.09
2023-05-05T05:51:09.115Z,98267.09
2023-05-05T05:53:35.729Z,98273.97
2023-05-05T05:56:02.273Z,98259.94
2023-05-05T05:58:28.936Z,98283.88
2023-05-05T06:00:55.458Z,98274.00
2023-05-05T06:03:22.058Z,98272.69
2023-05-05T06:05:48.711Z,98276.94
2023-05-05T06:08:15.664Z,98277.06
2023-05-05T06:10:48.179Z,98279.09
2023-05-05T06:13:18.025Z,98216.16
2023-05-05T06:15:47.936Z,98262.41
2023-05-05T06:18:15.285Z,98265.19
2023-05-05T06:20:43.380Z,98267.38
2023-05-05T06:23:11.216Z,98265.31
2023-05-05T06:25:42.159Z,98260.38
2023-05-05T06:28:08.723Z,98261.88
2023-05-05T06:30:35.172Z,98268.13
2023-05-05T06:33:01.642Z,98259.72
2023-05-05T06:35:30.206Z,98259.66
2023-05-05T06:37:56.664Z,98257.34
2023-05-05T06:40:23.287Z,98256.25
2023-05-05T06:42:49.920Z,98252.34
2023-05-05T06:45:22.189Z,98252.88
2023-05-05T06:47:49.159Z,98257.25
2023-05-05T06:50:15.696Z,98258.59
2023-05-05T06:52:42.474Z,98258.47
2023-05-05T06:55:09.693Z,98261.69
2023-05-05T06:57:36.193Z,98258.59
2023-05-05T07:00:05.698Z,98259.69
2023-05-05T07:02:33.567Z,98250.97
2023-05-05T07:05:00.238Z,98241.34
2023-05-05T07:07:26.884Z,98253.09
2023-05-05T07:09:53.301Z,98252.38
2023-05-05T07:12:19.864Z,98256.19
2023-05-05T07:14:46.707Z,98257.63
2023-05-05T07:17:13.234Z,98252.41
2023-05-05T07:19:39.769Z,98260.44
2023-05-05T07:22:06.276Z,98259.38
2023-05-05T07:24:32.773Z,98267.88
2023-05-05T07:26:59.297Z,98234.13
2023-05-05T07:29:25.856Z,98252.66
2023-05-05T07:31:52.410Z,98258.38
2023-05-05T07:34:18.841Z,98253.66
2023-05-05T07:36:45.447Z,98257.94
2023-05-05T07:39:14.906Z,98221.59
2023-05-05T07:41:42.376Z,98251.78
2023-05-05T07:44:08.894Z,98255.50
2023-05-05T07:46:35.396Z,98255.25
2023-05-05T07:49:01.908Z,98254.78
2023-05-05T07:51:28.351Z,98262.03
2023-05-05T07:53:55.724Z,98254.63
2023-05-05T07:56:22.145Z,98250.09
2023-05-05T07:58:48.558Z,98248.19
2023-05-05T08:01:15.010Z,98248.19
2023-05-05T08:03:41.737Z,98246.97
2023-05-05T08:06:14.406Z,98249.91
2023-05-05T08:08:40.858Z,98243.03
2023-05-05T08:11:07.934Z,98241.88
2023-05-05T08:13:34.609Z,98242.63
2023-05-05T08:16:01.212Z,98237.31
2023-05-05T08:18:27.858Z,98235.53
2023-05-05T08:20:54.719Z,98239.56
2023-05-05T08:23:21.633Z,98237.50
2023-05-05T08:25:48.104Z,98241.50
2023-05-05T08:28:14.612Z,98237.28
2023-05-05T08:30:41.316Z,98236.44
2023-05-05T08:33:07.843Z,98221.84
2023-05-05T08:35:34.373Z,98247.38
2023-05-05T08:38:00.797Z,98234.97
2023-05-05T08:40:32.096Z,98230.22
2023-05-05T08:42:59.144Z,98234.22
2023-05-05T08:45:27.451Z,98243.53
2023-05-05T08:47:56.301Z,98235.06
2023-05-05T08:50:26.859Z,98232.88
2023-05-05T08:53:08.115Z,98233.56
2023-05-05T08:55:35.840Z,98221.28
2023-05-05T08:58:05.680Z,98209.91
2023-05-05T09:00:33.450Z,98221.66
2023-05-05T09:03:01.352Z,98206.84
2023-05-05T09:05:28.013Z,98212.78
2023-05-05T09:07:54.471Z,98221.88
2023-05-05T09:10:21.525Z,98213.75
2023-05-05T09:12:50.372Z,98214.84
2023-05-05T09:15:16.840Z,98206.81
2023-05-05T09:17:44.124Z,98192.53
2023-05-05T09:20:12.781Z,98214.03
2023-05-05T09:22:43.070Z,98212.16
2023-05-05T09:25:11.957Z,98203.00
2023-05-05T09:27:43.673Z,98202.44
2023-05-05T09:30:12.359Z,98191.13
2023-05-05T09:32:52.980Z,98201.09
2023-05-05T09:35:20.423Z,98199.41
2023-05-05T09:37:47.092Z,98207.88
2023-05-05T09:40:15.295Z,98187.56
2023-05-05T09:42:41.868Z,98209.56
2023-05-05T09:45:25.975Z,98199.53
2023-05-05T09:47:58.799Z,98192.59
2023-05-05T09:50:30.095Z,98198.56
2023-05-05T09:53:01.381Z,98197.78
2023-05-05T09:55:28.822Z,98193.34
2023-05-05T09:57:55.696Z,98206.13
2023-05-05T10:00:22.674Z,98176.25
2023-05-05T10:02:49.202Z,98196.97
2023-05-05T10:05:18.087Z,98203.56
2023-05-05T10:07:46.251Z,98205.00
2023-05-05T10:10:15.469Z,98179.31
2023-05-05T10:12:42.451Z,98209.97
2023-05-05T10:15:10.616Z,98204.31
2023-05-05T10:18:02.818Z,98196.09
2023-05-05T10:20:33.352Z,98204.41
2023-05-05T10:23:05.485Z,98194.44
2023-05-05T10:25:39.052Z,98200.03
2023-05-05T10:28:06.820Z,98198.41
2023-05-05T10:30:39.474Z,98208.06
2023-05-05T10:33:31.078Z,98191.34
2023-05-05T10:36:01.656Z,98191.69
2023-05-05T10:38:30.895Z,98193.44
2023-05-05T10:41:00.007Z,98193.28
2023-05-05T10:43:28.272Z,98188.97
2023-05-05T10:45:55.676Z,98180.81
2023-05-05T10:48:32.239Z,98181.84
2023-05-05T10:51:39.398Z,98188.47
2023-05-05T10:54:30.153Z,98191.53
2023-05-05T10:57:01.219Z,98183.81
2023-05-05T10:59:36.911Z,98181.56
2023-05-05T11:02:29.462Z,98180.91
2023-05-05T11:05:31.867Z,98174.47
2023-05-05T11:08:25.021Z,98170.63
2023-05-05T11:10:51.456Z,98164.03
2023-05-05T11:13:19.479Z,98156.31
2023-05-05T11:15:46.082Z,98156.75
2023-05-05T11:18:30.547Z,98149.34
2023-05-05T11:20:59.980Z,98146.34
2023-05-05T11:23:26.831Z,98150.66
2023-05-05T11:25:54.117Z,98150.50
2023-05-05T11:28:24.912Z,98142.56
2023-05-05T11:31:17.918Z,98142.09
2023-05-05T11:33:45.092Z,98137.22
2023-05-05T11:36:14.364Z,98141.75
2023-05-05T11:39:17.817Z,98135.66
2023-05-05T11:42:32.146Z,98136.22
2023-05-05T11:44:59.342Z,98123.31
2023-05-05T11:47:27.589Z,98126.94
2023-05-05T11:49:55.503Z,98127.91
2023-05-05T11:52:24.292Z,98129.53
2023-05-05T11:54:51.286Z,98119.25
2023-05-05T11:57:28.036Z,98123.16
2023-05-05T11:59:56.150Z,98125.44
2023-05-05T12:02:24.053Z,98124.47
2023-05-05T12:04:50.931Z,98120.44
2023-05-05T12:07:19.357Z,98120.78
2023-05-05T12:09:46.973Z,98121.78
2023-05-05T12:12:14.606Z,98124.69
2023-05-05T12:14:52.442Z,98119.06
2023-05-05T12:17:20.532Z,98115.84
2023-05-05T12:19:54.184Z,98113.56
2023-05-05T12:22:28.052Z,98099.41
2023-05-05T12:24:58.959Z,98108.38
2023-05-05T12:27:27.477Z,98096.44
2023-05-05T12:29:55.462Z,98085.22
2023-05-05T12:32:24.504Z,98089.69
2023-05-05T12:34:57.309Z,98081.34
2023-05-05T12:37:26.128Z,98085.97
2023-05-05T12:39:54.735Z,98074.66
2023-05-05T12:42:22.061Z,98080.13
2023-05-05T12:44:49.120Z,98071.59
2023-05-05T12:47:28.708Z,98068.09
2023-05-05T12:49:55.279Z,98073.06
2023-05-05T12:52:21.823Z,98069.53
2023-05-05T12:54:59.358Z,98079.06
2023-05-05T12:57:26.023Z,98076.19
2023-05-05T12:59:53.356Z,98070.94
2023-05-05T13:02:21.128Z,98067.66
2023-05-05T13:04:52.956Z,98065.25
2023-05-05T13:07:21.157Z,98067.31
2023-05-05T13:09:51.283Z,98070.53
2023-05-05T13:12:18.700Z,98059.81
2023-05-05T13:14:46.557Z,98054.78
2023-05-05T13:17:13.825Z,98064.41
2023-05-05T13:19:46.123Z,98045.91
2023-05-05T13:22:13.317Z,98067.78
2023-05-05T13:24:50.764Z,98063.44
2023-05-05T13:27:19.637Z,98066.34
2023-05-05T13:29:46.581Z,98065.38
2023-05-05T13:32:13.032Z,98057.06
2023-05-05T13:34:39.674Z,98061.38
2023-05-05T13:37:06.390Z,98073.41
2023-05-05T13:39:33.162Z,98066.34
2023-05-05T13:41:59.682Z,98061.03
2023-05-05T13:44:26.096Z,98066.34
2023-05-05T13:46:52.577Z,98058.63
2023-05-05T13:49:20.066Z,98057.97
2023-05-05T13:51:47.034Z,98055.06
2023-05-05T13:54:13.868Z,98043.38
2023-05-05T13:56:40.461Z,98048.38
2023-05-05T13:59:06.958Z,98042.94
2023-05-05T14:01:33.619Z,98036.47
2023-05-05T14:04:01.516Z,98042.44
2023-05-05T14:06:30.444Z,98040.72
2023-05-05T14:08:56.839Z,98035.44
2023-05-05T14:11:23.290Z,98033.53
2023-05-05T14:13:49.791Z,98034.19
2023-05-05T14:16:16.684Z,97997.91
2023-05-05T14:18:43.184Z,98033.50
2023-05-05T14:21:09.821Z,98033.97
2023-05-05T14:23:36.257Z,98029.13
2023-05-05T14:26:02.755Z,98035.53
2023-05-05T14:28:29.220Z,98041.41
2023-05-05T14:30:56.013Z,98046.59
2023-05-05T14:33:22.524Z,98051.91
2023-05-05T14:35:49.127Z,98051.66
2023-05-05T14:38:15.652Z,98059.13
2023-05-05T14:40:42.311Z,98061.97
2023-05-05T14:43:08.762Z,98057.16
2023-05-05T14:45:35.292Z,98067.25
2023-05-05T14:48:02.348Z,98065.03
2023-05-05T14:50:28.768Z,98080.81
2023-05-05T14:52:55.174Z,98086.63
2023-05-05T14:55:21.737Z,98074.28
2023-05-05T14:57:48.116Z,98003.75
2023-05-05T15:00:14.928Z,98095.13
2023-05-05T15:02:41.518Z,98096.41
2023-05-05T15:05:08.645Z,98102.38
2023-05-05T15:07:35.294Z,98106.16
2023-05-05T15:10:01.850Z,98107.97
2023-05-05T15:12:28.286Z,98110.31
2023-05-05T15:14:55.404Z,98104.06
2023-05-05T15:17:22.122Z,98121.66
2023-05-05T15:19:48.596Z,98133.88
2023-05-05T15:22:15.048Z,98136.50
2023-05-05T15:24:41.476Z,98140.22
2023-05-05T15:27:08.171Z,98149.78
2023-05-05T15:29:34.629Z,98146.78
2023-05-05T15:32:01.397Z,98142.31
2023-05-05T15:34:27.910Z,98141.69
2023-05-05T15:36:54.806Z,98145.56
2023-05-05T15:39:21.411Z,98137.50
2023-05-05T15:41:47.850Z,98134.84
2023-05-05T15:44:14.348Z,98122.41
2023-05-05T15:46:41.262Z,98111.88
2023-05-05T15:49:07.823Z,98116.66
2023-05-05T15:51:34.278Z,98121.38
2023-05-05T15:54:00.821Z,98122.69
2023-05-05T15:56:27.476Z,98121.06
2023-05-05T15:58:54.291Z,98107.59
2023-05-05T16:01:21.013Z,98116.22
2023-05-05T16:03:47.504Z,98121.06
2023-05-05T16:06:14.041Z,98113.88
2023-05-05T16:08:40.794Z,98118.19
2023-05-05T16:11:07.196Z,98127.94
2023-05-05T16:13:33.656Z,98132.84
2023-05-05T16:16:00.149Z,98129.91
2023-05-05T16:18:26.637Z,98133.06
2023-05-05T16:20:53.093Z,98127.97
2023-05-05T16:23:19.486Z,98132.66
2023-05-05T16:25:45.909Z,98121.88
2023-05-05T16:28:12.438Z,98128.38
2023-05-05T16:30:39.822Z,98124.06
2023-05-05T16:33:06.772Z,98120.56
2023-05-05T16:35:33.466Z,98086.91
2023-05-05T16:37:59.902Z,98109.56
2023-05-05T16:40:26.350Z,98109.56
2023-05-05T16:42:52.866Z,98111.19
2023-05-05T16:45:19.333Z,98110.59
2023-05-05T16:47:45.827Z,98112.22
2023-05-05T16:50:12.320Z,98112.81
2023-05-05T16:52:38.884Z,98117.66
2023-05-05T16:55:05.539Z,98116.00
2023-05-05T16:57:31.937Z,98113.28
2023-05-05T16:59:58.399Z,98091.22
2023-05-05T17:02:24.956Z,98113.81
2023-05-05T17:04:51.532Z,98111.09
2023-05-05T17:07:18.034Z,98111.66
2023-05-05T17:09:44.640Z,98103.84
2023-05-05T17:12:11.160Z,98108.91
2023-05-05T17:14:37.750Z,98115.97
2023-05-05T17:17:04.331Z,98111.09
2023-05-05T17:19:31.301Z,98080.44
2023-05-05T17:21:57.735Z,98104.84
2023-05-05T17:24:24.262Z,98108.88
2023-05-05T17:26:50.823Z,98111.66
2023-05-05T17:29:21.513Z,98110.91
2023-05-05T17:31:48.085Z,98115.84
2023-05-05T17:34:14.544Z,98122.03
2023-05-05T17:36:41.102Z,98129.56
2023-05-05T17:39:08.092Z,98112.31
2023-05-05T17:41:34.543Z,98118.22
2023-05-05T17:44:00.977Z,98043.34
2023-05-05T17:46:27.921Z,98130.69
2023-05-05T17:48:55.131Z,98130.94
2023-05-05T17:51:21.629Z,98128.50
2023-05-05T17:53:48.024Z,98132.84
2023-05-05T17:56:14.421Z,98137.66
2023-05-05T17:58:41.230Z,98141.16
2023-05-05T18:01:07.762Z,98145.78
2023-05-05T18:03:34.309Z,98148.75
2023-05-05T18:06:02.205Z,98149.31
2023-05-05T18:08:28.668Z,98140.13
2023-05-05T18:10:55.061Z,98147.97
2023-05-05T18:13:21.529Z,98153.91
2023-05-05T18:15:48.034Z,98156.09
2023-05-05T18:18:14.633Z,98153.38
2023-05-05T18:20:41.213Z,98155.81
2023-05-05T18:23:07.719Z,98147.50
2023-05-05T18:25:34.101Z,98164.75
2023-05-05T18:28:00.516Z,98152.88
2023-05-05T18:30:27.513Z,98159.88
2023-05-05T18:32:54.002Z,98154.75
2023-05-05T18:35:21.373Z,98163.16
2023-05-05T18:37:47.999Z,98164.75
2023-05-05T18:40:14.503Z,98167.47
2023-05-05T18:42:41.687Z,98170.44
2023-05-05T18:45:10.546Z,98142.38
2023-05-05T18:47:38.370Z,98173.16
2023-05-05T18:50:06.123Z,98176.09
2023-05-05T18:52:33.081Z,98178.53
2023-05-05T18:54:59.725Z,98174.22
2023-05-05T18:57:27.272Z,98187.72
2023-05-05T18:59:53.715Z,98188.00
2023-05-05T19:02:20.201Z,98135.41
2023-05-05T19:04:46.761Z,98184.75
2023-05-05T19:07:23.858Z,98189.88
2023-05-05T19:09:58.024Z,98195.56
2023-05-05T19:12:24.472Z,98190.69
2023-05-05T19:14:50.898Z,98190.16
2023-05-05T19:17:17.487Z,98191.75
2023-05-05T19:19:44.023Z,98185.00
2023-05-05T19:22:10.443Z,98186.34
2023-05-05T19:24:36.978Z,98170.94
2023-05-05T19:27:03.904Z,98189.31
2023-05-05T19:29:33.358Z,98193.66
2023-05-05T19:31:59.846Z,98190.91
2023-05-05T19:34:26.323Z,98198.13
2023-05-05T19:36:52.817Z,98204.59
2023-05-05T19:39:19.243Z,98202.16
2023-05-05T19:41:45.868Z,98199.72
2023-05-05T19:44:12.360Z,98200.81
2023-05-05T19:46:39.190Z,98207.78
2023-05-05T19:49:06.125Z,98196.97
2023-05-05T19:51:32.614Z,98210.97
2023-05-05T19:53:59.415Z,98205.56
2023-05-05T19:56:26.246Z,98214.75
2023-05-05T19:58:57.518Z,98214.19
2023-05-05T20:01:24.177Z,98220.13
2023-05-05T20:03:52.407Z,98224.38
2023-05-05T20:06:19.051Z,98232.69
2023-05-05T20:08:45.545Z,98210.47
2023-05-05T20:11:12.441Z,98220.13
2023-05-05T20:13:39.050Z,98217.28
2023-05-05T20:16:06.443Z,98202.38
2023-05-05T20:18:33.049Z,98226.69
2023-05-05T20:20:59.664Z,98226.66
2023-05-05T20:23:26.612Z,98232.31
2023-05-05T20:25:54.201Z,98228.47
2023-05-05T20:28:20.784Z,98232.00
2023-05-05T20:30:47.193Z,98234.16
2023-05-05T20:33:13.630Z,98233.53
2023-05-05T20:35:40.102Z,98235.16
2023-05-05T20:38:06.546Z,98236.22
2023-05-05T20:40:33.593Z,98228.91
2023-05-05T20:43:00.194Z,98237.84
2023-05-05T20:45:26.673Z,98241.31
2023-05-05T20:47:53.310Z,98245.78
2023-05-05T20:50:22.386Z,98247.31
2023-05-05T20:52:49.391Z,98232.19
2023-05-05T20:55:15.865Z,98237.06
2023-05-05T20:57:42.300Z,98244.09
2023-05-05T21:00:09.385Z,98240.75
2023-05-05T21:02:37.340Z,98240.81
2023-05-05T21:05:04.417Z,98239.16
2023-05-05T21:07:34.234Z,98240.47
2023-05-05T21:10:04.639Z,98235.16
2023-05-05T21:12:31.194Z,98239.13
2023-05-05T21:14:58.793Z,98236.34
2023-05-05T21:17:29.235Z,98236.25
2023-05-05T21:19:56.016Z,98223.16
2023-05-05T21:22:22.846Z,98219.38
2023-05-05T21:24:49.332Z,98236.78
2023-05-05T21:27:15.936Z,98235.41
2023-05-05T21:29:42.332Z,98246.03
2023-05-05T21:32:10.583Z,98244.97
2023-05-05T21:34:38.047Z,98244.28
2023-05-05T21:37:05.534Z,98248.22
2023-05-05T21:39:33.171Z,98248.84
2023-05-05T21:42:00.580Z,98247.09
2023-05-05T21:44:28.111Z,98223.97
2023-05-05T21:46:55.056Z,98261.34
2023-05-05T21:49:21.704Z,98233.22
2023-05-05T21:51:48.149Z,98258.41
2023-05-05T21:54:14.647Z,98213.75
2023-05-05T21:56:41.125Z,98259.16
2023-05-05T21:59:07.616Z,98255.78
2023-05-05T22:01:34.174Z,98255.69
2023-05-05T22:04:00.654Z,98247.50
2023-05-05T22:06:27.210Z,98257.13
2023-05-05T22:08:53.688Z,98250.03
2023-05-05T22:11:20.194Z,98254.34
2023-05-05T22:13:46.663Z,98248.91
2023-05-05T22:16:16.409Z,98250.84
2023-05-05T22:18:43.369Z,98248.47
2023-05-05T22:21:10.109Z,98251.94
2023-05-05T22:23:37.248Z,98240.47
2023-05-05T22:26:04.774Z,98217.31
2023-05-05T22:28:31.291Z,98263.56
2023-05-05T22:30:57.756Z,98256.84
2023-05-05T22:33:24.384Z,98258.47
2023-05-05T22:35:51.938Z,98226.41
2023-05-05T22:38:18.658Z,98219.56
2023-05-05T22:40:45.407Z,98262.00
2023-05-05T22:43:12.136Z,98263.66
2023-05-05T22:45:38.642Z,98252.75
2023-05-05T22:48:05.587Z,98262.00
2023-05-05T22:50:32.264Z,98261.06
2023-05-05T22:52:58.769Z,98254.16
2023-05-05T22:55:25.276Z,98225.31
2023-05-05T22:57:52.681Z,98257.81
2023-05-05T23:00:19.601Z,98261.69
2023-05-05T23:02:46.045Z,98256.19
2023-05-05T23:05:12.775Z,98259.31
2023-05-05T23:07:39.446Z,98255.31
2023-05-05T23:10:06.359Z,98260.94
2023-05-05T23:12:33.039Z,98198.88
2023-05-05T23:14:59.500Z,98230.03
2023-05-05T23:17:25.983Z,98170.41
2023-05-05T23:19:52.482Z,98256.94
2023-05-05T23:22:18.907Z,98258.81
2023-05-05T23:24:45.281Z,98260.31
2023-05-05T23:27:12.121Z,98263.69
2023-05-05T23:29:38.684Z,98274.75
2023-05-05T23:32:05.679Z,98272.69
2023-05-05T23:34:32.231Z,98255.81
2023-05-05T23:36:58.658Z,98260.13
2023-05-05T23:39:25.086Z,98261.06
2023-05-05T23:41:51.562Z,98261.97
2023-05-05T23:44:17.948Z,98265.22
2023-05-05T23:46:44.398Z,98259.56
2023-05-05T23:49:10.885Z,98260.09
2023-05-05T23:51:37.487Z,98261.75
2023-05-05T23:54:04.143Z,98261.13
2023-05-05T23:56:30.622Z,98266.50
2023-05-05T23:58:57.101Z,98260.44
